createdAt,value
2023-03-31T00:00:58.418Z,100062.47
2023-03-31T00:04:05.748Z,100059.25
2023-03-31T00:07:08.568Z,100063.78
2023-03-31T00:13:19.197Z,100051.69
2023-03-31T00:16:22.411Z,100053.59
2023-03-31T00:19:25.140Z,100050.75
2023-03-31T00:22:28.150Z,100057.37
2023-03-31T00:25:31.056Z,100053.75
2023-03-31T00:28:33.965Z,100049.91
2023-03-31T00:31:36.814Z,100041.69
2023-03-31T00:34:39.738Z,100043.69
2023-03-31T00:37:44.038Z,100042.69
2023-03-31T00:40:48.708Z,100036.13
2023-03-31T00:44:10.349Z,100036.31
2023-03-31T00:47:18.536Z,100034.34
2023-03-31T00:50:23.889Z,100036.31
2023-03-31T00:53:30.201Z,100039.97
2023-03-31T00:56:36.801Z,100036.41
2023-03-31T00:59:52.454Z,100034.00
2023-03-31T01:02:59.050Z,100027.03
2023-03-31T01:06:05.220Z,100022.00
2023-03-31T01:09:08.486Z,100024.13
2023-03-31T01:12:11.987Z,100014.81
2023-03-31T01:15:15.862Z,100011.06
2023-03-31T01:18:22.151Z,100014.72
2023-03-31T01:21:41.212Z,100005.03
2023-03-31T01:25:08.830Z,100008.88
2023-03-31T01:28:23.773Z,100003.09
2023-03-31T01:31:35.616Z,100006.94
2023-03-31T01:34:57.009Z,100020.09
2023-03-31T01:38:33.929Z,100005.69
2023-03-31T01:41:56.805Z,99994.97
2023-03-31T01:45:18.018Z,99998.75
2023-03-31T01:48:52.092Z,100003.31
2023-03-31T01:52:22.991Z,99994.00
2023-03-31T01:55:35.027Z,100004.69
2023-03-31T01:58:40.695Z,100002.72
2023-03-31T02:01:52.004Z,100000.59
2023-03-31T02:05:00.899Z,100003.06
2023-03-31T02:08:08.547Z,100001.28
2023-03-31T02:11:11.989Z,99996.03
2023-03-31T02:14:19.212Z,100005.09
2023-03-31T02:17:30.805Z,100002.63
2023-03-31T02:20:33.965Z,99997.72
2023-03-31T02:23:37.894Z,99998.56
2023-03-31T02:26:46.069Z,99992.00
2023-03-31T02:29:49.531Z,99991.38
2023-03-31T02:32:52.238Z,99982.81
2023-03-31T02:35:54.976Z,99979.22
2023-03-31T02:39:04.343Z,99985.94
2023-03-31T02:42:09.869Z,99986.44
2023-03-31T02:45:37.499Z,99980.84
2023-03-31T02:48:46.704Z,99973.78
2023-03-31T02:52:21.709Z,99966.72
2023-03-31T02:55:43.821Z,99978.22
2023-03-31T02:58:57.609Z,99974.25
2023-03-31T03:02:19.285Z,99980.19
2023-03-31T03:05:46.085Z,99976.09
2023-03-31T03:09:13.825Z,99967.44
2023-03-31T03:12:19.651Z,99969.09
2023-03-31T03:15:36.186Z,99962.34
2023-03-31T03:18:39.402Z,99965.63
2023-03-31T03:21:42.272Z,99955.31
2023-03-31T03:24:45.162Z,99944.16
2023-03-31T03:27:48.280Z,99950.66
2023-03-31T03:30:51.636Z,99945.25
2023-03-31T03:33:54.664Z,99941.63
2023-03-31T03:36:57.288Z,99939.19
2023-03-31T03:40:00.137Z,99931.91
2023-03-31T03:43:02.898Z,99933.34
2023-03-31T03:46:05.841Z,99939.34
2023-03-31T03:49:08.908Z,99935.44
2023-03-31T03:52:11.800Z,99930.19
2023-03-31T03:55:14.909Z,99930.16
2023-03-31T03:58:19.302Z,99927.03
2023-03-31T04:01:22.808Z,99926.16
2023-03-31T04:04:25.780Z,99923.25
2023-03-31T04:07:28.669Z,99930.56
2023-03-31T04:10:31.375Z,99922.47
2023-03-31T04:13:34.491Z,99910.06
2023-03-31T04:16:38.719Z,99908.13
2023-03-31T04:19:42.491Z,99915.22
2023-03-31T04:22:47.596Z,99906.53
2023-03-31T04:25:53.459Z,99898.28
2023-03-31T04:28:59.220Z,99901.78
2023-03-31T04:32:02.062Z,99898.41
2023-03-31T04:35:05.235Z,99898.28
2023-03-31T04:38:09.015Z,99893.84
2023-03-31T04:41:12.124Z,99876.25
2023-03-31T04:44:15.153Z,99874.19
2023-03-31T04:47:18.020Z,99872.84
2023-03-31T04:50:20.997Z,99874.56
2023-03-31T04:53:24.120Z,99876.34
2023-03-31T04:56:27.571Z,99875.72
2023-03-31T04:59:30.412Z,99878.69
2023-03-31T05:02:33.489Z,99880.09
2023-03-31T05:05:36.881Z,99886.34
2023-03-31T05:08:39.678Z,99885.13
2023-03-31T05:11:42.603Z,99890.00
2023-03-31T05:14:45.399Z,99885.88
2023-03-31T05:17:48.952Z,99889.66
2023-03-31T05:20:52.050Z,99887.19
2023-03-31T05:23:54.887Z,99886.56
2023-03-31T05:26:57.804Z,99881.16
2023-03-31T05:30:04.652Z,99880.78
2023-03-31T05:33:07.506Z,99877.81
2023-03-31T05:36:12.172Z,99870.25
2023-03-31T05:39:15.791Z,99861.56
2023-03-31T05:42:19.284Z,99858.88
2023-03-31T05:45:22.014Z,99850.66
2023-03-31T05:48:24.841Z,99843.50
2023-03-31T05:51:27.539Z,99842.47
2023-03-31T05:54:30.460Z,99842.72
2023-03-31T05:57:33.257Z,99846.09
2023-03-31T06:00:36.677Z,99837.97
2023-03-31T06:03:42.921Z,99833.28
2023-03-31T06:06:46.426Z,99818.97
2023-03-31T06:09:49.246Z,99828.63
2023-03-31T06:12:52.426Z,99832.19
2023-03-31T06:15:57.100Z,99823.47
2023-03-31T06:18:59.880Z,99820.03
2023-03-31T06:22:02.836Z,99812.50
2023-03-31T06:25:06.028Z,99807.41
2023-03-31T06:28:08.901Z,99814.78
2023-03-31T06:31:14.500Z,99813.59
2023-03-31T06:34:18.463Z,99826.03
2023-03-31T06:37:22.919Z,99829.12
2023-03-31T06:40:25.752Z,99826.59
2023-03-31T06:43:28.783Z,99819.59
2023-03-31T06:46:31.663Z,99819.47
2023-03-31T06:49:34.594Z,99809.19
2023-03-31T06:52:38.362Z,99804.16
2023-03-31T06:55:41.129Z,99802.59
2023-03-31T06:58:43.921Z,99801.91
2023-03-31T07:01:48.890Z,99803.56
2023-03-31T07:04:52.898Z,99796.19
2023-03-31T07:07:56.734Z,99804.53
2023-03-31T07:11:01.298Z,99785.19
2023-03-31T07:14:04.072Z,99792.53
2023-03-31T07:17:06.980Z,99790.00
2023-03-31T07:20:15.224Z,99782.34
2023-03-31T07:23:20.212Z,99780.09
2023-03-31T07:26:27.304Z,99774.25
2023-03-31T07:29:30.518Z,99772.69
2023-03-31T07:32:33.580Z,99772.22
2023-03-31T07:35:40.776Z,99767.84
2023-03-31T07:38:46.118Z,99751.75
2023-03-31T07:41:49.883Z,99746.50
2023-03-31T07:44:52.751Z,99737.88
2023-03-31T07:47:55.815Z,99738.91
2023-03-31T07:50:58.661Z,99739.09
2023-03-31T07:54:01.862Z,99734.47
2023-03-31T07:57:06.452Z,99738.12
2023-03-31T08:00:12.770Z,99728.94
2023-03-31T08:03:18.688Z,99727.06
2023-03-31T08:06:23.516Z,99727.03
2023-03-31T08:09:26.662Z,99720.06
2023-03-31T08:12:29.394Z,99732.06
2023-03-31T08:15:32.173Z,99724.34
2023-03-31T08:18:35.277Z,99709.72
2023-03-31T08:21:38.359Z,99710.06
2023-03-31T08:24:41.888Z,99704.63
2023-03-31T08:27:51.264Z,99705.25
2023-03-31T08:30:54.169Z,99687.53
2023-03-31T08:33:57.769Z,99695.34
2023-03-31T08:37:00.490Z,99677.00
2023-03-31T08:40:09.847Z,99675.59
2023-03-31T08:43:27.060Z,99666.41
2023-03-31T08:46:33.831Z,99677.56
2023-03-31T08:49:44.834Z,99656.72
2023-03-31T08:52:52.453Z,99666.75
2023-03-31T08:55:57.518Z,99653.97
2023-03-31T08:59:02.947Z,99641.03
2023-03-31T09:02:39.359Z,99632.56
2023-03-31T09:05:59.269Z,99631.75
2023-03-31T09:09:10.345Z,99609.16
2023-03-31T09:13:04.341Z,99626.81
2023-03-31T09:16:17.278Z,99615.53
2023-03-31T09:19:33.936Z,99602.88
2023-03-31T09:22:42.492Z,99613.91
2023-03-31T09:25:46.593Z,99597.31
2023-03-31T09:28:50.473Z,99604.03
2023-03-31T09:31:54.743Z,99599.72
2023-03-31T09:35:07.577Z,99603.97
2023-03-31T09:38:12.104Z,99597.44
2023-03-31T09:41:17.728Z,99599.22
2023-03-31T09:44:32.288Z,99580.91
2023-03-31T09:47:40.074Z,99582.06
2023-03-31T09:50:47.184Z,99594.78
2023-03-31T09:54:01.825Z,99573.22
2023-03-31T09:57:14.476Z,99556.81
2023-03-31T10:00:22.849Z,99555.16
2023-03-31T10:03:28.018Z,99537.34
2023-03-31T10:06:31.123Z,99536.84
2023-03-31T10:09:35.767Z,99536.59
2023-03-31T10:12:38.592Z,99529.75
2023-03-31T10:15:42.444Z,99537.41
2023-03-31T10:18:45.676Z,99519.84
2023-03-31T10:21:55.758Z,99530.41
2023-03-31T10:25:22.749Z,99518.44
2023-03-31T10:28:26.086Z,99511.59
2023-03-31T10:31:37.559Z,99519.59
2023-03-31T10:34:42.849Z,99508.38
2023-03-31T10:37:45.669Z,99499.84
2023-03-31T10:40:53.674Z,99499.56
2023-03-31T10:44:01.500Z,99497.25
2023-03-31T10:47:16.508Z,99488.53
2023-03-31T10:53:21.436Z,99465.06
2023-03-31T10:56:48.945Z,99451.50
2023-03-31T11:00:06.052Z,99448.41
2023-03-31T11:03:30.825Z,99448.16
2023-03-31T11:07:11.436Z,99446.78
2023-03-31T11:10:17.291Z,99432.84
2023-03-31T11:13:36.692Z,99423.63
2023-03-31T11:16:58.326Z,99421.47
2023-03-31T11:20:23.652Z,99418.09
2023-03-31T11:23:46.031Z,99398.34
2023-03-31T11:27:03.814Z,99403.50
2023-03-31T11:30:24.876Z,99396.28
2023-03-31T11:33:58.492Z,99377.00
2023-03-31T11:37:36.504Z,99369.31
2023-03-31T11:40:55.341Z,99374.66
2023-03-31T11:44:04.807Z,99365.00
2023-03-31T11:47:15.103Z,99369.63
2023-03-31T11:50:24.683Z,99363.00
2023-03-31T11:53:46.290Z,99366.28
2023-03-31T11:56:49.590Z,99367.22
2023-03-31T11:59:59.319Z,99368.87
2023-03-31T12:03:16.286Z,99374.63
2023-03-31T12:06:23.545Z,99375.00
2023-03-31T12:09:37.788Z,99381.31
2023-03-31T12:13:02.558Z,99397.72
2023-03-31T12:16:46.480Z,99383.66
2023-03-31T12:19:55.740Z,99376.19
2023-03-31T12:23:00.402Z,99369.84
2023-03-31T12:26:28.272Z,99356.31
2023-03-31T12:29:38.190Z,99346.50
2023-03-31T12:32:47.071Z,99341.50
2023-03-31T12:36:27.405Z,99320.19
2023-03-31T12:39:42.649Z,99307.19
2023-03-31T12:42:48.351Z,99307.66
2023-03-31T12:46:23.446Z,99291.87
2023-03-31T12:49:41.428Z,99280.78
2023-03-31T12:52:56.836Z,99271.09
2023-03-31T12:56:00.003Z,99234.06
2023-03-31T12:59:19.631Z,99241.59
2023-03-31T13:02:25.415Z,99225.69
2023-03-31T13:05:40.621Z,99209.94
2023-03-31T13:08:55.716Z,99214.97
2023-03-31T13:11:58.981Z,99200.66
2023-03-31T13:15:05.064Z,99187.00
2023-03-31T13:18:08.340Z,99168.72
2023-03-31T13:21:12.676Z,99161.72
2023-03-31T13:24:15.802Z,99166.66
2023-03-31T13:27:31.457Z,99161.25
2023-03-31T13:30:37.536Z,99156.09
2023-03-31T13:33:43.369Z,99151.94
2023-03-31T13:37:01.521Z,99153.50
2023-03-31T13:40:26.046Z,99146.44
2023-03-31T13:43:32.328Z,99127.34
2023-03-31T13:46:52.521Z,99141.00
2023-03-31T13:50:01.281Z,99133.47
2023-03-31T13:53:43.050Z,99115.84
2023-03-31T13:57:04.580Z,99112.22
2023-03-31T14:00:28.932Z,99128.56
2023-03-31T14:03:59.945Z,99117.34
2023-03-31T14:07:08.958Z,99129.25
2023-03-31T14:10:25.861Z,99123.63
2023-03-31T14:13:28.775Z,99118.66
2023-03-31T14:16:38.935Z,99108.19
2023-03-31T14:20:10.884Z,99079.28
2023-03-31T14:23:40.598Z,99056.59
2023-03-31T14:27:18.779Z,99038.88
2023-03-31T14:30:42.569Z,99046.59
2023-03-31T14:33:51.385Z,99033.78
2023-03-31T14:37:06.108Z,99048.81
2023-03-31T14:40:15.463Z,99035.94
2023-03-31T14:43:22.311Z,99023.34
2023-03-31T14:46:25.469Z,99012.25
2023-03-31T14:49:34.793Z,99014.12
2023-03-31T14:52:37.697Z,99010.75
2023-03-31T14:55:57.397Z,98995.19
2023-03-31T14:59:02.463Z,98999.88
2023-03-31T15:02:06.476Z,98998.75
2023-03-31T15:05:16.604Z,98989.53
2023-03-31T15:08:23.004Z,98990.25
2023-03-31T15:11:29.120Z,99004.59
2023-03-31T15:14:36.833Z,99025.91
2023-03-31T15:17:41.592Z,99024.97
2023-03-31T15:20:45.723Z,99022.38
2023-03-31T15:23:53.190Z,99020.63
2023-03-31T15:26:55.825Z,99027.75
2023-03-31T15:29:59.967Z,99036.56
2023-03-31T15:33:15.952Z,99025.53
2023-03-31T15:36:22.814Z,99020.41
2023-03-31T15:39:27.935Z,99005.66
2023-03-31T15:42:32.259Z,99006.59
2023-03-31T15:45:51.575Z,99009.63
2023-03-31T15:48:55.713Z,99005.19
2023-03-31T15:52:00.710Z,99009.66
2023-03-31T15:55:23.453Z,99021.50
2023-03-31T15:58:47.611Z,99023.28
2023-03-31T16:01:51.336Z,99022.62
2023-03-31T16:04:59.206Z,99022.00
2023-03-31T16:08:03.247Z,99034.50
2023-03-31T16:11:11.303Z,99036.59
2023-03-31T16:14:21.474Z,99035.72
2023-03-31T16:17:37.464Z,99040.63
2023-03-31T16:20:46.231Z,99035.72
2023-03-31T16:23:54.592Z,99040.56
2023-03-31T16:27:07.454Z,99052.88
2023-03-31T16:30:14.158Z,99032.56
2023-03-31T16:33:19.268Z,99036.75
2023-03-31T16:36:22.164Z,99036.09
2023-03-31T16:39:25.276Z,99037.59
2023-03-31T16:42:28.134Z,99043.28
2023-03-31T16:45:31.091Z,99056.94
2023-03-31T16:48:34.340Z,99080.66
2023-03-31T16:51:37.229Z,99063.84
2023-03-31T16:54:40.702Z,99076.56
2023-03-31T16:57:43.670Z,99082.91
2023-03-31T17:00:46.965Z,99076.75
2023-03-31T17:03:50.368Z,99084.59
2023-03-31T17:06:53.938Z,99097.19
2023-03-31T17:09:56.672Z,99113.75
2023-03-31T17:12:59.612Z,99149.88
2023-03-31T17:16:16.526Z,99195.00
2023-03-31T17:19:27.333Z,99193.94
2023-03-31T17:22:30.572Z,99199.59
2023-03-31T17:25:34.729Z,99210.50
2023-03-31T17:28:38.225Z,99224.69
2023-03-31T17:31:44.043Z,99220.44
2023-03-31T17:34:50.661Z,99227.88
2023-03-31T17:37:54.592Z,99222.41
2023-03-31T17:41:03.752Z,99218.97
2023-03-31T17:44:08.861Z,99233.00
2023-03-31T17:47:11.663Z,99238.06
2023-03-31T17:50:14.535Z,99241.50
2023-03-31T17:53:17.675Z,99230.78
2023-03-31T17:56:21.945Z,99226.72
2023-03-31T17:59:29.179Z,99216.37
2023-03-31T18:02:33.430Z,99201.16
2023-03-31T18:05:37.676Z,99202.78
2023-03-31T18:08:42.126Z,99206.19
2023-03-31T18:11:45.105Z,99209.00
2023-03-31T18:14:54.937Z,99215.25
2023-03-31T18:18:04.792Z,99194.56
2023-03-31T18:21:09.882Z,99194.34
2023-03-31T18:24:13.942Z,99203.06
2023-03-31T18:27:17.228Z,99209.91
2023-03-31T18:30:20.166Z,99199.94
2023-03-31T18:33:23.544Z,99184.34
2023-03-31T18:36:28.641Z,99186.97
2023-03-31T18:39:31.874Z,99176.03
2023-03-31T18:42:35.801Z,99162.44
2023-03-31T18:45:39.070Z,99160.59
2023-03-31T18:48:42.286Z,99164.66
2023-03-31T18:51:45.310Z,99164.06
2023-03-31T18:54:48.404Z,99178.44
2023-03-31T18:57:51.471Z,99185.97
2023-03-31T19:00:54.917Z,99200.53
2023-03-31T19:03:58.811Z,99206.81
2023-03-31T19:07:02.014Z,99204.56
2023-03-31T19:10:05.449Z,99197.69
2023-03-31T19:13:09.002Z,99198.69
2023-03-31T19:16:13.532Z,99197.06
2023-03-31T19:19:16.500Z,99185.53
2023-03-31T19:22:19.999Z,99189.56
2023-03-31T19:25:24.339Z,99192.81
2023-03-31T19:28:28.087Z,99198.47
2023-03-31T19:31:33.737Z,99209.59
2023-03-31T19:34:37.930Z,99212.84
2023-03-31T19:37:40.871Z,99201.28
2023-03-31T19:40:44.576Z,99198.06
2023-03-31T19:43:48.144Z,99188.53
2023-03-31T19:46:51.485Z,99180.25
2023-03-31T19:49:55.443Z,99176.00
2023-03-31T19:52:58.991Z,99181.25
2023-03-31T19:56:05.229Z,99163.84
2023-03-31T19:59:09.056Z,99176.38
2023-03-31T20:02:14.066Z,99181.66
2023-03-31T20:05:17.408Z,99164.84
2023-03-31T20:08:20.102Z,99167.88
2023-03-31T20:11:24.547Z,99145.97
2023-03-31T20:14:28.520Z,99150.03
2023-03-31T20:17:31.631Z,99141.31
2023-03-31T20:20:34.754Z,99142.31
2023-03-31T20:23:38.312Z,99152.03
2023-03-31T20:26:41.597Z,99152.84
2023-03-31T20:29:44.774Z,99139.66
2023-03-31T20:32:47.824Z,99125.88
2023-03-31T20:36:06.434Z,99123.69
2023-03-31T20:39:10.297Z,99113.97
2023-03-31T20:42:13.284Z,99103.22
2023-03-31T20:45:16.114Z,99085.19
2023-03-31T20:48:22.508Z,99075.69
2023-03-31T20:51:28.325Z,99080.94
2023-03-31T20:54:31.645Z,99094.09
2023-03-31T20:57:34.506Z,99088.84
2023-03-31T21:00:38.324Z,99095.09
2023-03-31T21:03:41.658Z,99086.59
2023-03-31T21:06:46.943Z,99087.59
2023-03-31T21:09:49.936Z,99076.47
2023-03-31T21:12:52.930Z,99074.03
2023-03-31T21:15:56.386Z,99080.09
2023-03-31T21:19:00.168Z,99083.75
2023-03-31T21:22:03.006Z,99067.34
2023-03-31T21:25:06.789Z,99070.38
2023-03-31T21:28:09.728Z,99061.22
2023-03-31T21:31:22.712Z,99062.03
2023-03-31T21:34:25.592Z,99072.75
2023-03-31T21:37:28.499Z,99068.69
2023-03-31T21:40:31.336Z,99070.72
2023-03-31T21:43:34.746Z,99078.44
2023-03-31T21:46:38.566Z,99075.38
2023-03-31T21:49:41.747Z,99079.03
2023-03-31T21:52:44.617Z,99091.56
2023-03-31T21:55:50.573Z,99086.31
2023-03-31T21:58:53.503Z,99087.31
2023-03-31T22:01:57.788Z,99097.59
2023-03-31T22:05:00.769Z,99089.72
2023-03-31T22:08:03.679Z,99078.00
2023-03-31T22:11:08.955Z,99081.63
2023-03-31T22:14:11.966Z,99075.75
2023-03-31T22:17:14.866Z,99068.47
2023-03-31T22:20:18.353Z,99066.66
2023-03-31T22:23:21.196Z,99064.00
2023-03-31T22:26:25.157Z,99069.44
2023-03-31T22:29:27.960Z,99065.00
2023-03-31T22:32:31.199Z,99056.87
2023-03-31T22:35:34.293Z,99064.34
2023-03-31T22:38:37.241Z,99069.00
2023-03-31T22:41:40.347Z,99064.97
2023-03-31T22:44:43.533Z,99067.81
2023-03-31T22:47:46.349Z,99064.97
2023-03-31T22:50:49.247Z,99075.50
2023-03-31T22:53:53.504Z,99078.75
2023-03-31T22:56:57.428Z,99075.09
2023-03-31T23:00:00.934Z,99061.94
2023-03-31T23:03:04.040Z,99065.16
2023-03-31T23:06:07.306Z,99070.22
2023-03-31T23:09:11.155Z,99053.44
2023-03-31T23:12:13.845Z,99065.78
2023-03-31T23:15:16.683Z,99059.50
2023-03-31T23:18:19.740Z,99075.09
2023-03-31T23:21:25.336Z,99067.41
2023-03-31T23:24:29.565Z,99064.34
2023-03-31T23:27:32.565Z,99067.81
2023-03-31T23:30:35.269Z,99057.66
2023-03-31T23:33:38.024Z,99062.13
2023-03-31T23:36:40.737Z,99054.38
2023-03-31T23:39:44.040Z,99048.13
2023-03-31T23:42:47.030Z,99038.41
2023-03-31T23:45:50.297Z,99053.16
2023-03-31T23:48:53.024Z,99055.37
2023-03-31T23:51:56.103Z,99052.66
2023-03-31T23:54:58.833Z,99060.16
2023-03-31T23:58:02.665Z,99058.94
